Grandview on Hudson, New York
Current Conditions -  °F | °C
As of 1:56 PM on Tuesday 21 Oct 2014 (Local Time) from KHPN Reporting Station
Broken Clouds Broken Clouds  
Wind Chill: 63°   Ceiling: 6000
Heat Index: 63°   Visibility: 10mi
Dew Point: 50°   Wind: 7mph
Humidity: 63%   Direction: 100°E
Pressure: 29.85"   Gusts: NA
Location:  41.0938°N, 73.9254°W
Report Text: KHPN 211756Z 10006KT 10SM SCT043 BKN060 17/10 A2985 RMK AO2 SLP107 T01720100 10183 20100 58016
Loading
Personal Weather Stations






























Interactive Weather Map New forecast layout! Learn more

10-Day Weather Forecast

Advertisements
Track Severe Weather on mobile